sensor_id;sensor_type;location;lat;lon;timestamp;P1;durP1;ratioP1;P2;durP2;ratioP2
20159;SDS011;50187;50.492;12.134;2023-09-12T00:02:10;4.17;;;3.87;;
20159;SDS011;50187;50.492;12.134;2023-09-12T00:04:37;4.60;;;4.20;;
20159;SDS011;50187;50.492;12.134;2023-09-12T00:07:04;4.60;;;4.30;;
20159;SDS011;50187;50.492;12.134;2023-09-12T00:09:30;4.00;;;3.70;;
20159;SDS011;50187;50.492;12.134;2023-09-12T00:11:57;4.00;;;3.70;;
20159;SDS011;50187;50.492;12.134;2023-09-12T00:14:23;3.90;;;3.70;;
20159;SDS011;50187;50.492;12.134;2023-09-12T00:16:50;4.00;;;3.70;;
20159;SDS011;50187;50.492;12.134;2023-09-12T00:19:19;4.33;;;4.03;;
20159;SDS011;50187;50.492;12.134;2023-09-12T00:21:45;4.60;;;4.30;;
20159;SDS011;50187;50.492;12.134;2023-09-12T00:24:12;3.73;;;3.53;;
20159;SDS011;50187;50.492;12.134;2023-09-12T00:26:38;3.70;;;3.50;;
20159;SDS011;50187;50.492;12.134;2023-09-12T00:29:05;4.63;;;4.30;;
20159;SDS011;50187;50.492;12.134;2023-09-12T00:31:31;4.40;;;4.10;;
20159;SDS011;50187;50.492;12.134;2023-09-12T00:33:58;3.57;;;3.37;;
20159;SDS011;50187;50.492;12.134;2023-09-12T00:36:24;4.00;;;3.70;;
20159;SDS011;50187;50.492;12.134;2023-09-12T00:38:51;4.20;;;3.93;;
20159;SDS011;50187;50.492;12.134;2023-09-12T00:41:17;4.70;;;4.27;;
20159;SDS011;50187;50.492;12.134;2023-09-12T00:43:44;4.30;;;4.00;;
20159;SDS011;50187;50.492;12.134;2023-09-12T00:46:11;4.30;;;4.00;;
20159;SDS011;50187;50.492;12.134;2023-09-12T00:48:40;4.60;;;4.30;;
20159;SDS011;50187;50.492;12.134;2023-09-12T00:51:07;4.50;;;4.20;;
20159;SDS011;50187;50.492;12.134;2023-09-12T00:53:34;4.47;;;4.17;;
20159;SDS011;50187;50.492;12.134;2023-09-12T00:56:00;4.20;;;3.90;;
20159;SDS011;50187;50.492;12.134;2023-09-12T00:58:28;4.23;;;3.93;;
20159;SDS011;50187;50.492;12.134;2023-09-12T01:00:55;4.43;;;4.13;;
20159;SDS011;50187;50.492;12.134;2023-09-12T01:03:22;4.10;;;3.90;;
20159;SDS011;50187;50.492;12.134;2023-09-12T01:05:49;4.13;;;3.80;;
20159;SDS011;50187;50.492;12.134;2023-09-12T01:08:17;4.23;;;3.93;;
20159;SDS011;50187;50.492;12.134;2023-09-12T01:10:43;4.43;;;3.77;;
20159;SDS011;50187;50.492;12.134;2023-09-12T01:13:14;4.00;;;3.70;;
20159;SDS011;50187;50.492;12.134;2023-09-12T01:15:41;5.00;;;4.60;;
20159;SDS011;50187;50.492;12.134;2023-09-12T01:18:08;4.30;;;4.00;;
20159;SDS011;50187;50.492;12.134;2023-09-12T01:20:35;4.07;;;3.77;;
20159;SDS011;50187;50.492;12.134;2023-09-12T01:23:08;4.40;;;4.07;;
20159;SDS011;50187;50.492;12.134;2023-09-12T01:28:56;3.80;;;3.50;;
20159;SDS011;50187;50.492;12.134;2023-09-12T01:31:24;4.60;;;4.30;;
20159;SDS011;50187;50.492;12.134;2023-09-12T01:33:55;4.30;;;4.00;;
20159;SDS011;50187;50.492;12.134;2023-09-12T01:36:23;4.60;;;4.30;;
20159;SDS011;50187;50.492;12.134;2023-09-12T01:38:50;4.13;;;3.83;;
20159;SDS011;50187;50.492;12.134;2023-09-12T01:41:17;3.80;;;3.60;;
20159;SDS011;50187;50.492;12.134;2023-09-12T01:43:45;4.30;;;4.00;;
20159;SDS011;50187;50.492;12.134;2023-09-12T01:46:13;4.23;;;3.93;;
20159;SDS011;50187;50.492;12.134;2023-09-12T01:48:43;4.30;;;4.00;;
20159;SDS011;50187;50.492;12.134;2023-09-12T01:51:11;4.03;;;3.73;;
20159;SDS011;50187;50.492;12.134;2023-09-12T01:53:38;4.70;;;4.30;;
20159;SDS011;50187;50.492;12.134;2023-09-12T01:56:05;4.73;;;4.43;;
20159;SDS011;50187;50.492;12.134;2023-09-12T01:58:32;4.00;;;3.80;;
20159;SDS011;50187;50.492;12.134;2023-09-12T02:00:59;4.20;;;3.90;;
20159;SDS011;50187;50.492;12.134;2023-09-12T02:03:26;4.27;;;3.97;;
20159;SDS011;50187;50.492;12.134;2023-09-12T02:05:53;3.80;;;3.60;;
20159;SDS011;50187;50.492;12.134;2023-09-12T02:08:19;4.00;;;3.80;;
20159;SDS011;50187;50.492;12.134;2023-09-12T02:10:46;4.43;;;4.13;;
20159;SDS011;50187;50.492;12.134;2023-09-12T02:13:13;3.97;;;3.67;;
20159;SDS011;50187;50.492;12.134;2023-09-12T02:15:39;4.47;;;4.17;;
20159;SDS011;50187;50.492;12.134;2023-09-12T02:18:06;4.20;;;3.90;;
20159;SDS011;50187;50.492;12.134;2023-09-12T02:20:37;4.53;;;4.23;;
20159;SDS011;50187;50.492;12.134;2023-09-12T02:23:04;4.33;;;4.00;;
20159;SDS011;50187;50.492;12.134;2023-09-12T02:25:31;7.13;;;4.73;;
20159;SDS011;50187;50.492;12.134;2023-09-12T02:27:58;4.20;;;3.90;;
20159;SDS011;50187;50.492;12.134;2023-09-12T02:30:24;4.60;;;4.20;;
20159;SDS011;50187;50.492;12.134;2023-09-12T02:32:51;4.10;;;3.90;;
20159;SDS011;50187;50.492;12.134;2023-09-12T02:35:18;4.30;;;4.00;;
20159;SDS011;50187;50.492;12.134;2023-09-12T02:37:44;4.13;;;3.83;;
20159;SDS011;50187;50.492;12.134;2023-09-12T02:40:11;3.90;;;3.60;;
20159;SDS011;50187;50.492;12.134;2023-09-12T02:42:38;4.20;;;3.90;;
20159;SDS011;50187;50.492;12.134;2023-09-12T02:45:05;4.33;;;4.03;;
20159;SDS011;50187;50.492;12.134;2023-09-12T02:47:32;4.13;;;3.83;;
20159;SDS011;50187;50.492;12.134;2023-09-12T02:49:58;3.80;;;3.60;;
20159;SDS011;50187;50.492;12.134;2023-09-12T02:52:25;4.40;;;4.10;;
20159;SDS011;50187;50.492;12.134;2023-09-12T02:54:52;4.33;;;4.03;;
20159;SDS011;50187;50.492;12.134;2023-09-12T02:57:18;4.37;;;4.07;;
20159;SDS011;50187;50.492;12.134;2023-09-12T02:59:45;4.30;;;4.00;;
20159;SDS011;50187;50.492;12.134;2023-09-12T03:02:11;4.53;;;4.13;;
20159;SDS011;50187;50.492;12.134;2023-09-12T03:04:38;4.23;;;4.03;;
20159;SDS011;50187;50.492;12.134;2023-09-12T03:07:04;4.77;;;4.40;;
20159;SDS011;50187;50.492;12.134;2023-09-12T03:09:31;4.23;;;3.93;;
20159;SDS011;50187;50.492;12.134;2023-09-12T03:11:58;4.47;;;4.17;;
20159;SDS011;50187;50.492;12.134;2023-09-12T03:14:27;4.03;;;3.73;;
20159;SDS011;50187;50.492;12.134;2023-09-12T03:16:54;4.70;;;4.40;;
20159;SDS011;50187;50.492;12.134;2023-09-12T03:19:22;4.00;;;3.80;;
20159;SDS011;50187;50.492;12.134;2023-09-12T03:21:49;4.50;;;4.20;;
20159;SDS011;50187;50.492;12.134;2023-09-12T03:24:15;4.17;;;3.87;;
20159;SDS011;50187;50.492;12.134;2023-09-12T03:26:45;4.97;;;4.47;;
20159;SDS011;50187;50.492;12.134;2023-09-12T03:29:11;4.57;;;4.27;;
20159;SDS011;50187;50.492;12.134;2023-09-12T03:31:38;4.63;;;4.23;;
20159;SDS011;50187;50.492;12.134;2023-09-12T03:34:04;3.67;;;3.47;;
20159;SDS011;50187;50.492;12.134;2023-09-12T03:36:31;4.57;;;4.17;;
20159;SDS011;50187;50.492;12.134;2023-09-12T03:38:58;3.70;;;3.50;;
20159;SDS011;50187;50.492;12.134;2023-09-12T03:41:24;4.23;;;3.93;;
20159;SDS011;50187;50.492;12.134;2023-09-12T03:43:54;4.53;;;4.23;;
20159;SDS011;50187;50.492;12.134;2023-09-12T03:46:21;4.67;;;4.37;;
20159;SDS011;50187;50.492;12.134;2023-09-12T03:48:48;3.87;;;3.67;;
20159;SDS011;50187;50.492;12.134;2023-09-12T03:51:15;4.37;;;4.07;;
20159;SDS011;50187;50.492;12.134;2023-09-12T03:53:42;4.53;;;4.23;;
20159;SDS011;50187;50.492;12.134;2023-09-12T03:56:08;4.17;;;3.93;;
20159;SDS011;50187;50.492;12.134;2023-09-12T03:58:38;4.50;;;4.20;;
20159;SDS011;50187;50.492;12.134;2023-09-12T04:01:06;4.47;;;4.17;;
20159;SDS011;50187;50.492;12.134;2023-09-12T04:03:33;4.10;;;3.80;;
20159;SDS011;50187;50.492;12.134;2023-09-12T04:06:00;5.27;;;4.13;;
20159;SDS011;50187;50.492;12.134;2023-09-12T04:08:26;4.30;;;4.00;;
20159;SDS011;50187;50.492;12.134;2023-09-12T04:10:53;4.67;;;4.37;;
20159;SDS011;50187;50.492;12.134;2023-09-12T04:13:19;4.50;;;4.07;;
20159;SDS011;50187;50.492;12.134;2023-09-12T04:15:46;4.33;;;4.03;;
20159;SDS011;50187;50.492;12.134;2023-09-12T04:18:13;4.73;;;4.43;;
20159;SDS011;50187;50.492;12.134;2023-09-12T04:20:39;3.90;;;3.63;;
20159;SDS011;50187;50.492;12.134;2023-09-12T04:23:06;4.10;;;3.80;;
20159;SDS011;50187;50.492;12.134;2023-09-12T04:25:33;4.20;;;3.90;;
20159;SDS011;50187;50.492;12.134;2023-09-12T04:27:59;4.67;;;4.37;;
20159;SDS011;50187;50.492;12.134;2023-09-12T04:30:26;4.67;;;4.07;;
20159;SDS011;50187;50.492;12.134;2023-09-12T04:32:54;4.17;;;3.87;;
20159;SDS011;50187;50.492;12.134;2023-09-12T04:35:21;4.33;;;4.03;;
20159;SDS011;50187;50.492;12.134;2023-09-12T04:37:47;4.73;;;4.33;;
20159;SDS011;50187;50.492;12.134;2023-09-12T04:40:17;4.77;;;4.47;;
20159;SDS011;50187;50.492;12.134;2023-09-12T04:42:44;4.47;;;4.17;;
20159;SDS011;50187;50.492;12.134;2023-09-12T04:45:10;4.53;;;4.13;;
20159;SDS011;50187;50.492;12.134;2023-09-12T04:47:37;4.00;;;3.80;;
20159;SDS011;50187;50.492;12.134;2023-09-12T04:50:04;4.40;;;4.10;;
20159;SDS011;50187;50.492;12.134;2023-09-12T04:52:31;4.63;;;4.33;;
20159;SDS011;50187;50.492;12.134;2023-09-12T04:55:00;4.37;;;4.07;;
20159;SDS011;50187;50.492;12.134;2023-09-12T04:57:27;4.10;;;3.80;;
20159;SDS011;50187;50.492;12.134;2023-09-12T04:59:57;4.30;;;4.00;;
20159;SDS011;50187;50.492;12.134;2023-09-12T05:02:26;4.40;;;4.10;;
20159;SDS011;50187;50.492;12.134;2023-09-12T05:04:53;4.83;;;4.50;;
20159;SDS011;50187;50.492;12.134;2023-09-12T05:07:21;4.43;;;4.13;;
20159;SDS011;50187;50.492;12.134;2023-09-12T05:09:49;4.53;;;4.23;;
20159;SDS011;50187;50.492;12.134;2023-09-12T05:12:15;4.10;;;3.90;;
20159;SDS011;50187;50.492;12.134;2023-09-12T05:14:42;4.83;;;4.43;;
20159;SDS011;50187;50.492;12.134;2023-09-12T05:17:09;4.37;;;3.97;;
20159;SDS011;50187;50.492;12.134;2023-09-12T05:19:35;5.23;;;4.83;;
20159;SDS011;50187;50.492;12.134;2023-09-12T05:22:02;3.87;;;3.63;;
20159;SDS011;50187;50.492;12.134;2023-09-12T05:24:29;4.93;;;4.53;;
20159;SDS011;50187;50.492;12.134;2023-09-12T05:26:55;4.23;;;3.93;;
20159;SDS011;50187;50.492;12.134;2023-09-12T05:29:22;4.20;;;3.90;;
20159;SDS011;50187;50.492;12.134;2023-09-12T05:31:49;4.23;;;3.93;;
20159;SDS011;50187;50.492;12.134;2023-09-12T05:34:16;4.07;;;3.87;;
20159;SDS011;50187;50.492;12.134;2023-09-12T05:36:42;4.27;;;3.97;;
20159;SDS011;50187;50.492;12.134;2023-09-12T05:39:09;4.33;;;4.03;;
20159;SDS011;50187;50.492;12.134;2023-09-12T05:41:36;4.10;;;3.80;;
20159;SDS011;50187;50.492;12.134;2023-09-12T05:44:03;4.20;;;3.90;;
20159;SDS011;50187;50.492;12.134;2023-09-12T05:46:30;5.43;;;4.93;;
20159;SDS011;50187;50.492;12.134;2023-09-12T05:48:56;4.43;;;4.13;;
20159;SDS011;50187;50.492;12.134;2023-09-12T05:51:23;4.40;;;4.00;;
20159;SDS011;50187;50.492;12.134;2023-09-12T05:53:50;4.53;;;4.23;;
20159;SDS011;50187;50.492;12.134;2023-09-12T05:56:16;4.60;;;4.30;;
20159;SDS011;50187;50.492;12.134;2023-09-12T05:58:43;4.07;;;3.77;;
20159;SDS011;50187;50.492;12.134;2023-09-12T06:01:11;4.03;;;3.73;;
20159;SDS011;50187;50.492;12.134;2023-09-12T06:03:37;4.40;;;4.00;;
20159;SDS011;50187;50.492;12.134;2023-09-12T06:06:04;4.70;;;4.30;;
20159;SDS011;50187;50.492;12.134;2023-09-12T06:08:31;4.57;;;4.17;;
20159;SDS011;50187;50.492;12.134;2023-09-12T06:10:57;5.13;;;4.67;;
20159;SDS011;50187;50.492;12.134;2023-09-12T06:13:24;4.10;;;3.80;;
20159;SDS011;50187;50.492;12.134;2023-09-12T06:15:51;5.23;;;4.43;;
20159;SDS011;50187;50.492;12.134;2023-09-12T06:18:17;4.10;;;3.77;;
20159;SDS011;50187;50.492;12.134;2023-09-12T06:20:46;4.43;;;4.13;;
20159;SDS011;50187;50.492;12.134;2023-09-12T06:23:12;4.40;;;4.10;;
20159;SDS011;50187;50.492;12.134;2023-09-12T06:25:39;4.23;;;3.93;;
20159;SDS011;50187;50.492;12.134;2023-09-12T06:28:08;4.50;;;4.20;;
20159;SDS011;50187;50.492;12.134;2023-09-12T06:30:35;4.53;;;4.23;;
20159;SDS011;50187;50.492;12.134;2023-09-12T06:33:02;4.23;;;3.93;;
20159;SDS011;50187;50.492;12.134;2023-09-12T06:35:29;4.30;;;4.00;;
20159;SDS011;50187;50.492;12.134;2023-09-12T06:37:55;4.43;;;4.13;;
20159;SDS011;50187;50.492;12.134;2023-09-12T06:40:23;3.97;;;3.77;;
20159;SDS011;50187;50.492;12.134;2023-09-12T06:42:49;3.90;;;3.70;;
20159;SDS011;50187;50.492;12.134;2023-09-12T06:45:16;4.63;;;4.30;;
20159;SDS011;50187;50.492;12.134;2023-09-12T06:47:42;3.93;;;3.73;;
20159;SDS011;50187;50.492;12.134;2023-09-12T06:50:09;4.77;;;4.13;;
20159;SDS011;50187;50.492;12.134;2023-09-12T06:52:41;4.10;;;3.80;;
20159;SDS011;50187;50.492;12.134;2023-09-12T06:55:07;4.07;;;3.87;;
20159;SDS011;50187;50.492;12.134;2023-09-12T06:57:34;3.67;;;3.40;;
20159;SDS011;50187;50.492;12.134;2023-09-12T07:00:01;4.30;;;3.90;;
20159;SDS011;50187;50.492;12.134;2023-09-12T07:02:32;4.20;;;4.00;;
20159;SDS011;50187;50.492;12.134;2023-09-12T07:04:59;4.33;;;4.03;;
20159;SDS011;50187;50.492;12.134;2023-09-12T07:07:25;4.27;;;3.97;;
20159;SDS011;50187;50.492;12.134;2023-09-12T07:09:52;4.30;;;4.00;;
20159;SDS011;50187;50.492;12.134;2023-09-12T07:12:24;3.73;;;3.53;;
20159;SDS011;50187;50.492;12.134;2023-09-12T07:14:52;4.70;;;4.30;;
20159;SDS011;50187;50.492;12.134;2023-09-12T07:17:18;4.07;;;3.77;;
20159;SDS011;50187;50.492;12.134;2023-09-12T07:19:45;4.77;;;4.00;;
20159;SDS011;50187;50.492;12.134;2023-09-12T07:22:11;4.50;;;4.20;;
20159;SDS011;50187;50.492;12.134;2023-09-12T07:24:38;4.80;;;4.40;;
20159;SDS011;50187;50.492;12.134;2023-09-12T07:27:05;3.67;;;3.47;;
20159;SDS011;50187;50.492;12.134;2023-09-12T07:29:31;11.83;;;4.97;;
20159;SDS011;50187;50.492;12.134;2023-09-12T07:31:57;4.60;;;4.20;;
20159;SDS011;50187;50.492;12.134;2023-09-12T07:34:26;5.73;;;5.23;;
20159;SDS011;50187;50.492;12.134;2023-09-12T07:36:53;6.80;;;5.37;;
20159;SDS011;50187;50.492;12.134;2023-09-12T07:39:20;6.23;;;5.70;;
20159;SDS011;50187;50.492;12.134;2023-09-12T07:41:47;6.77;;;6.13;;
20159;SDS011;50187;50.492;12.134;2023-09-12T07:44:13;7.43;;;6.20;;
20159;SDS011;50187;50.492;12.134;2023-09-12T07:46:42;6.60;;;6.00;;
20159;SDS011;50187;50.492;12.134;2023-09-12T07:49:09;6.80;;;6.10;;
20159;SDS011;50187;50.492;12.134;2023-09-12T07:51:36;6.90;;;6.30;;
20159;SDS011;50187;50.492;12.134;2023-09-12T07:54:02;6.90;;;6.33;;
20159;SDS011;50187;50.492;12.134;2023-09-12T07:56:29;8.53;;;6.93;;
20159;SDS011;50187;50.492;12.134;2023-09-12T07:58:57;7.40;;;6.80;;
20159;SDS011;50187;50.492;12.134;2023-09-12T08:01:23;7.33;;;6.73;;
20159;SDS011;50187;50.492;12.134;2023-09-12T08:03:50;7.27;;;6.67;;
20159;SDS011;50187;50.492;12.134;2023-09-12T08:06:17;8.17;;;7.57;;
20159;SDS011;50187;50.492;12.134;2023-09-12T08:08:44;7.93;;;7.33;;
20159;SDS011;50187;50.492;12.134;2023-09-12T08:11:11;7.80;;;7.20;;
20159;SDS011;50187;50.492;12.134;2023-09-12T08:13:38;8.53;;;7.83;;
20159;SDS011;50187;50.492;12.134;2023-09-12T08:16:04;7.77;;;7.17;;
20159;SDS011;50187;50.492;12.134;2023-09-12T08:18:31;7.00;;;6.50;;
20159;SDS011;50187;50.492;12.134;2023-09-12T08:20:58;8.30;;;7.53;;
20159;SDS011;50187;50.492;12.134;2023-09-12T08:23:25;7.83;;;7.10;;
20159;SDS011;50187;50.492;12.134;2023-09-12T08:25:51;8.17;;;7.47;;
20159;SDS011;50187;50.492;12.134;2023-09-12T08:28:18;7.70;;;7.00;;
20159;SDS011;50187;50.492;12.134;2023-09-12T08:30:45;7.60;;;6.90;;
20159;SDS011;50187;50.492;12.134;2023-09-12T08:33:12;8.40;;;7.70;;
20159;SDS011;50187;50.492;12.134;2023-09-12T08:35:39;8.67;;;7.87;;
20159;SDS011;50187;50.492;12.134;2023-09-12T08:38:06;8.10;;;7.50;;
20159;SDS011;50187;50.492;12.134;2023-09-12T08:40:33;8.23;;;7.50;;
20159;SDS011;50187;50.492;12.134;2023-09-12T08:43:01;7.87;;;7.27;;
20159;SDS011;50187;50.492;12.134;2023-09-12T08:45:29;8.33;;;7.67;;
20159;SDS011;50187;50.492;12.134;2023-09-12T08:47:57;7.97;;;7.37;;
20159;SDS011;50187;50.492;12.134;2023-09-12T08:50:26;8.37;;;7.67;;
20159;SDS011;50187;50.492;12.134;2023-09-12T08:52:57;8.10;;;7.50;;
20159;SDS011;50187;50.492;12.134;2023-09-12T08:55:33;8.60;;;7.90;;
20159;SDS011;50187;50.492;12.134;2023-09-12T08:58:04;8.37;;;7.57;;
20159;SDS011;50187;50.492;12.134;2023-09-12T09:00:32;7.23;;;6.60;;
20159;SDS011;50187;50.492;12.134;2023-09-12T09:03:00;6.57;;;6.10;;
20159;SDS011;50187;50.492;12.134;2023-09-12T09:05:29;7.10;;;6.60;;
20159;SDS011;50187;50.492;12.134;2023-09-12T09:07:56;7.67;;;6.97;;
20159;SDS011;50187;50.492;12.134;2023-09-12T09:10:23;6.63;;;6.13;;
20159;SDS011;50187;50.492;12.134;2023-09-12T09:13:12;7.37;;;6.83;;
20159;SDS011;50187;50.492;12.134;2023-09-12T09:15:39;7.50;;;7.00;;
20159;SDS011;50187;50.492;12.134;2023-09-12T09:18:08;7.40;;;6.80;;
20159;SDS011;50187;50.492;12.134;2023-09-12T09:20:37;6.57;;;6.07;;
20159;SDS011;50187;50.492;12.134;2023-09-12T09:23:05;7.70;;;7.10;;
20159;SDS011;50187;50.492;12.134;2023-09-12T09:25:36;7.97;;;6.67;;
20159;SDS011;50187;50.492;12.134;2023-09-12T09:28:16;7.07;;;6.57;;
20159;SDS011;50187;50.492;12.134;2023-09-12T09:30:45;6.63;;;6.13;;
20159;SDS011;50187;50.492;12.134;2023-09-12T09:33:13;7.47;;;6.73;;
20159;SDS011;50187;50.492;12.134;2023-09-12T09:35:41;7.03;;;6.53;;
20159;SDS011;50187;50.492;12.134;2023-09-12T09:38:08;7.47;;;6.90;;
20159;SDS011;50187;50.492;12.134;2023-09-12T09:40:35;7.20;;;6.67;;
20159;SDS011;50187;50.492;12.134;2023-09-12T09:43:03;6.60;;;6.13;;
20159;SDS011;50187;50.492;12.134;2023-09-12T09:45:30;6.43;;;6.03;;
20159;SDS011;50187;50.492;12.134;2023-09-12T09:48:04;7.23;;;6.63;;
20159;SDS011;50187;50.492;12.134;2023-09-12T09:50:34;7.73;;;7.23;;
20159;SDS011;50187;50.492;12.134;2023-09-12T09:53:03;6.97;;;6.37;;
20159;SDS011;50187;50.492;12.134;2023-09-12T09:55:35;6.63;;;6.13;;
20159;SDS011;50187;50.492;12.134;2023-09-12T09:58:02;6.67;;;6.20;;
20159;SDS011;50187;50.492;12.134;2023-09-12T10:00:29;7.03;;;6.47;;
20159;SDS011;50187;50.492;12.134;2023-09-12T10:02:59;7.50;;;6.80;;
20159;SDS011;50187;50.492;12.134;2023-09-12T10:05:31;6.73;;;6.23;;
20159;SDS011;50187;50.492;12.134;2023-09-12T10:07:58;6.73;;;6.23;;
20159;SDS011;50187;50.492;12.134;2023-09-12T10:10:27;6.60;;;6.07;;
20159;SDS011;50187;50.492;12.134;2023-09-12T10:12:57;6.97;;;6.47;;
20159;SDS011;50187;50.492;12.134;2023-09-12T10:15:27;6.70;;;6.20;;
20159;SDS011;50187;50.492;12.134;2023-09-12T10:17:56;6.93;;;6.40;;
20159;SDS011;50187;50.492;12.134;2023-09-12T10:20:31;6.83;;;6.33;;
20159;SDS011;50187;50.492;12.134;2023-09-12T10:23:04;7.07;;;6.43;;
20159;SDS011;50187;50.492;12.134;2023-09-12T10:25:37;7.13;;;6.60;;
20159;SDS011;50187;50.492;12.134;2023-09-12T10:28:05;6.10;;;5.70;;
20159;SDS011;50187;50.492;12.134;2023-09-12T10:30:32;6.40;;;6.00;;
20159;SDS011;50187;50.492;12.134;2023-09-12T10:33:02;6.40;;;5.90;;
20159;SDS011;50187;50.492;12.134;2023-09-12T10:35:31;7.10;;;6.50;;
20159;SDS011;50187;50.492;12.134;2023-09-12T10:37:59;5.73;;;5.37;;
20159;SDS011;50187;50.492;12.134;2023-09-12T10:40:30;7.17;;;6.67;;
20159;SDS011;50187;50.492;12.134;2023-09-12T10:42:58;6.13;;;5.63;;
20159;SDS011;50187;50.492;12.134;2023-09-12T10:45:29;6.40;;;6.00;;
20159;SDS011;50187;50.492;12.134;2023-09-12T10:47:58;7.03;;;6.50;;
20159;SDS011;50187;50.492;12.134;2023-09-12T10:50:25;6.80;;;6.17;;
20159;SDS011;50187;50.492;12.134;2023-09-12T10:52:52;6.87;;;6.37;;
20159;SDS011;50187;50.492;12.134;2023-09-12T10:55:19;7.20;;;6.60;;
20159;SDS011;50187;50.492;12.134;2023-09-12T11:00:29;6.17;;;5.77;;
20159;SDS011;50187;50.492;12.134;2023-09-12T11:02:59;6.07;;;5.67;;
20159;SDS011;50187;50.492;12.134;2023-09-12T11:05:52;6.43;;;6.00;;
20159;SDS011;50187;50.492;12.134;2023-09-12T11:08:20;6.00;;;5.50;;
20159;SDS011;50187;50.492;12.134;2023-09-12T11:11:16;6.00;;;5.60;;
20159;SDS011;50187;50.492;12.134;2023-09-12T11:13:47;6.30;;;5.80;;
20159;SDS011;50187;50.492;12.134;2023-09-12T11:16:29;6.20;;;5.80;;
20159;SDS011;50187;50.492;12.134;2023-09-12T11:19:15;5.77;;;5.37;;
20159;SDS011;50187;50.492;12.134;2023-09-12T11:21:43;5.73;;;5.33;;
20159;SDS011;50187;50.492;12.134;2023-09-12T11:24:13;5.60;;;5.13;;
20159;SDS011;50187;50.492;12.134;2023-09-12T11:26:53;6.63;;;6.23;;
20159;SDS011;50187;50.492;12.134;2023-09-12T11:29:42;5.73;;;5.23;;
20159;SDS011;50187;50.492;12.134;2023-09-12T11:32:09;5.80;;;5.40;;
20159;SDS011;50187;50.492;12.134;2023-09-12T11:34:42;5.40;;;5.00;;
20159;SDS011;50187;50.492;12.134;2023-09-12T11:37:10;6.07;;;5.67;;
20159;SDS011;50187;50.492;12.134;2023-09-12T11:39:49;5.57;;;5.17;;
20159;SDS011;50187;50.492;12.134;2023-09-12T11:42:16;5.70;;;5.30;;
20159;SDS011;50187;50.492;12.134;2023-09-12T11:44:43;5.60;;;5.20;;
20159;SDS011;50187;50.492;12.134;2023-09-12T11:47:12;5.60;;;5.20;;
20159;SDS011;50187;50.492;12.134;2023-09-12T11:49:39;5.83;;;5.43;;
20159;SDS011;50187;50.492;12.134;2023-09-12T11:52:11;5.70;;;5.20;;
20159;SDS011;50187;50.492;12.134;2023-09-12T11:54:40;5.03;;;4.73;;
20159;SDS011;50187;50.492;12.134;2023-09-12T11:57:12;5.40;;;5.10;;
20159;SDS011;50187;50.492;12.134;2023-09-12T11:59:41;5.80;;;5.40;;
20159;SDS011;50187;50.492;12.134;2023-09-12T12:02:11;5.33;;;4.93;;
20159;SDS011;50187;50.492;12.134;2023-09-12T12:04:38;5.50;;;5.10;;
20159;SDS011;50187;50.492;12.134;2023-09-12T12:07:06;4.97;;;4.57;;
20159;SDS011;50187;50.492;12.134;2023-09-12T12:09:34;5.27;;;4.90;;
20159;SDS011;50187;50.492;12.134;2023-09-12T12:12:19;5.17;;;4.80;;
20159;SDS011;50187;50.492;12.134;2023-09-12T12:14:45;5.60;;;5.10;;
20159;SDS011;50187;50.492;12.134;2023-09-12T12:17:12;5.53;;;5.03;;
20159;SDS011;50187;50.492;12.134;2023-09-12T12:19:39;4.57;;;4.27;;
20159;SDS011;50187;50.492;12.134;2023-09-12T12:22:07;5.10;;;4.70;;
20159;SDS011;50187;50.492;12.134;2023-09-12T12:24:39;5.30;;;4.83;;
20159;SDS011;50187;50.492;12.134;2023-09-12T12:27:07;5.40;;;4.77;;
20159;SDS011;50187;50.492;12.134;2023-09-12T12:29:36;4.80;;;4.50;;
20159;SDS011;50187;50.492;12.134;2023-09-12T12:32:05;4.63;;;4.33;;
20159;SDS011;50187;50.492;12.134;2023-09-12T12:34:35;4.97;;;4.53;;
20159;SDS011;50187;50.492;12.134;2023-09-12T12:37:27;5.10;;;4.70;;
20159;SDS011;50187;50.492;12.134;2023-09-12T12:39:57;5.30;;;4.87;;
20159;SDS011;50187;50.492;12.134;2023-09-12T12:42:25;4.70;;;4.40;;
20159;SDS011;50187;50.492;12.134;2023-09-12T12:45:21;4.70;;;4.30;;
20159;SDS011;50187;50.492;12.134;2023-09-12T12:47:59;4.47;;;4.17;;
20159;SDS011;50187;50.492;12.134;2023-09-12T12:50:27;4.40;;;4.10;;
20159;SDS011;50187;50.492;12.134;2023-09-12T12:52:53;4.67;;;4.37;;
20159;SDS011;50187;50.492;12.134;2023-09-12T12:55:20;5.33;;;4.90;;
20159;SDS011;50187;50.492;12.134;2023-09-12T12:57:47;4.43;;;4.03;;
20159;SDS011;50187;50.492;12.134;2023-09-12T13:00:15;4.73;;;4.43;;
20159;SDS011;50187;50.492;12.134;2023-09-12T13:02:42;4.87;;;4.50;;
20159;SDS011;50187;50.492;12.134;2023-09-12T13:05:27;5.07;;;4.70;;
20159;SDS011;50187;50.492;12.134;2023-09-12T13:07:55;4.70;;;4.37;;
20159;SDS011;50187;50.492;12.134;2023-09-12T13:10:22;4.50;;;4.20;;
20159;SDS011;50187;50.492;12.134;2023-09-12T13:12:49;5.13;;;4.83;;
20159;SDS011;50187;50.492;12.134;2023-09-12T13:15:16;4.63;;;4.20;;
20159;SDS011;50187;50.492;12.134;2023-09-12T13:17:44;4.27;;;3.97;;
20159;SDS011;50187;50.492;12.134;2023-09-12T13:20:10;5.00;;;4.60;;
20159;SDS011;50187;50.492;12.134;2023-09-12T13:22:37;4.77;;;4.47;;
20159;SDS011;50187;50.492;12.134;2023-09-12T13:25:04;4.20;;;3.90;;
20159;SDS011;50187;50.492;12.134;2023-09-12T13:27:32;4.40;;;4.00;;
20159;SDS011;50187;50.492;12.134;2023-09-12T13:29:59;5.40;;;4.70;;
20159;SDS011;50187;50.492;12.134;2023-09-12T13:32:26;4.03;;;3.80;;
20159;SDS011;50187;50.492;12.134;2023-09-12T13:34:53;3.93;;;3.67;;
20159;SDS011;50187;50.492;12.134;2023-09-12T13:37:19;4.63;;;4.17;;
20159;SDS011;50187;50.492;12.134;2023-09-12T13:39:47;4.17;;;3.90;;
20159;SDS011;50187;50.492;12.134;2023-09-12T13:42:16;4.40;;;4.10;;
20159;SDS011;50187;50.492;12.134;2023-09-12T13:44:47;4.80;;;4.40;;
20159;SDS011;50187;50.492;12.134;2023-09-12T13:47:14;4.40;;;4.10;;
20159;SDS011;50187;50.492;12.134;2023-09-12T13:49:49;4.23;;;3.93;;
20159;SDS011;50187;50.492;12.134;2023-09-12T13:52:22;3.90;;;3.70;;
20159;SDS011;50187;50.492;12.134;2023-09-12T13:54:49;3.70;;;3.40;;
20159;SDS011;50187;50.492;12.134;2023-09-12T13:57:16;4.17;;;3.97;;
20159;SDS011;50187;50.492;12.134;2023-09-12T13:59:43;4.33;;;4.03;;
20159;SDS011;50187;50.492;12.134;2023-09-12T14:02:12;3.80;;;3.60;;
20159;SDS011;50187;50.492;12.134;2023-09-12T14:04:39;3.90;;;3.60;;
20159;SDS011;50187;50.492;12.134;2023-09-12T14:07:07;4.00;;;3.70;;
20159;SDS011;50187;50.492;12.134;2023-09-12T14:09:34;4.17;;;3.87;;
20159;SDS011;50187;50.492;12.134;2023-09-12T14:12:02;4.93;;;4.53;;
20159;SDS011;50187;50.492;12.134;2023-09-12T14:14:32;3.73;;;3.53;;
20159;SDS011;50187;50.492;12.134;2023-09-12T14:16:59;3.93;;;3.73;;
20159;SDS011;50187;50.492;12.134;2023-09-12T14:19:27;4.30;;;4.00;;
20159;SDS011;50187;50.492;12.134;2023-09-12T14:21:55;4.43;;;4.03;;
20159;SDS011;50187;50.492;12.134;2023-09-12T14:24:22;4.23;;;3.80;;
20159;SDS011;50187;50.492;12.134;2023-09-12T14:26:50;4.27;;;4.00;;
20159;SDS011;50187;50.492;12.134;2023-09-12T14:29:18;4.10;;;3.80;;
20159;SDS011;50187;50.492;12.134;2023-09-12T14:31:46;3.87;;;3.67;;
20159;SDS011;50187;50.492;12.134;2023-09-12T14:34:20;4.10;;;3.80;;
20159;SDS011;50187;50.492;12.134;2023-09-12T14:36:46;4.20;;;3.80;;
20159;SDS011;50187;50.492;12.134;2023-09-12T14:39:14;4.03;;;3.73;;
20159;SDS011;50187;50.492;12.134;2023-09-12T14:41:41;3.93;;;3.73;;
20159;SDS011;50187;50.492;12.134;2023-09-12T14:44:07;4.13;;;3.90;;
20159;SDS011;50187;50.492;12.134;2023-09-12T14:46:34;4.37;;;4.07;;